createdAt,value
2023-03-25T00:00:17.595Z,99956.91
2023-03-25T00:02:48.275Z,99954.44
2023-03-25T00:05:18.994Z,99954.63
2023-03-25T00:07:53.141Z,99955.25
2023-03-25T00:10:21.861Z,99955.41
2023-03-25T00:12:50.335Z,99936.94
2023-03-25T00:15:19.326Z,99952.59
2023-03-25T00:17:47.691Z,99945.00
2023-03-25T00:20:16.087Z,99943.94
2023-03-25T00:22:44.895Z,99935.06
2023-03-25T00:25:17.768Z,99945.81
2023-03-25T00:27:47.925Z,99947.44
2023-03-25T00:30:21.201Z,99957.06
2023-03-25T00:32:52.710Z,99928.19
2023-03-25T00:35:22.359Z,99920.38
2023-03-25T00:37:57.737Z,99924.56
2023-03-25T00:40:29.411Z,99949.28
2023-03-25T00:42:58.487Z,99939.63
2023-03-25T00:45:26.783Z,99928.78
2023-03-25T00:47:55.396Z,99950.75
2023-03-25T00:50:25.019Z,99947.25
2023-03-25T00:52:54.593Z,99936.94
2023-03-25T00:55:23.228Z,99954.84
2023-03-25T00:57:52.932Z,99941.44
2023-03-25T01:00:21.510Z,99947.47
2023-03-25T01:02:53.775Z,99933.47
2023-03-25T01:05:22.644Z,99930.75
2023-03-25T01:07:51.961Z,99939.75
2023-03-25T01:10:21.299Z,99945.19
2023-03-25T01:12:49.894Z,99923.06
2023-03-25T01:15:21.715Z,99920.53
2023-03-25T01:17:50.527Z,99926.50
2023-03-25T01:20:19.036Z,99913.56
2023-03-25T01:22:47.841Z,99932.78
2023-03-25T01:25:16.189Z,99928.50
2023-03-25T01:27:44.595Z,99930.28
2023-03-25T01:30:16.251Z,99934.66
2023-03-25T01:32:46.226Z,99928.38
2023-03-25T01:35:14.656Z,99916.94
2023-03-25T01:37:44.664Z,99909.31
2023-03-25T01:40:20.545Z,99942.75
2023-03-25T01:42:48.931Z,99906.84
2023-03-25T01:45:23.758Z,99917.47
2023-03-25T01:48:04.644Z,99923.81
2023-03-25T01:50:34.148Z,99931.63
2023-03-25T01:53:04.662Z,99910.50
2023-03-25T01:55:35.841Z,99906.84
2023-03-25T01:58:11.930Z,99908.47
2023-03-25T02:00:41.398Z,99905.81
2023-03-25T02:03:13.087Z,99905.13
2023-03-25T02:05:47.978Z,99905.81
2023-03-25T02:08:17.014Z,99906.81
2023-03-25T02:10:48.308Z,99911.84
2023-03-25T02:13:18.089Z,99906.53
2023-03-25T02:16:10.140Z,99905.69
2023-03-25T02:18:52.358Z,99903.22
2023-03-25T02:21:52.977Z,99890.84
2023-03-25T02:24:55.234Z,99894.31
2023-03-25T02:27:42.028Z,99896.97
2023-03-25T02:30:56.347Z,99892.50
2023-03-25T02:34:07.993Z,99871.56
2023-03-25T02:37:26.420Z,99886.47
2023-03-25T02:40:01.563Z,99889.97
2023-03-25T02:42:38.882Z,99870.69
2023-03-25T02:45:13.250Z,99879.41
2023-03-25T02:47:47.224Z,99869.56
2023-03-25T02:50:19.216Z,99871.19
2023-03-25T02:52:52.055Z,99869.75
2023-03-25T02:55:25.445Z,99890.66
2023-03-25T02:57:57.286Z,99860.84
2023-03-25T03:00:29.833Z,99870.22
2023-03-25T03:03:01.332Z,99862.47
2023-03-25T03:05:34.001Z,99861.59
2023-03-25T03:08:19.624Z,99863.34
2023-03-25T03:10:56.212Z,99848.50
2023-03-25T03:13:38.427Z,99839.16
2023-03-25T03:16:15.296Z,99855.94
2023-03-25T03:18:52.775Z,99851.81
2023-03-25T03:21:30.318Z,99828.16
2023-03-25T03:24:07.081Z,99844.91
2023-03-25T03:26:41.794Z,99835.94
2023-03-25T03:29:16.157Z,99843.97
2023-03-25T03:32:05.557Z,99850.94
2023-03-25T03:34:45.053Z,99846.72
2023-03-25T03:37:16.930Z,99853.84
2023-03-25T03:39:49.108Z,99837.22
2023-03-25T03:42:25.096Z,99859.91
2023-03-25T03:44:58.077Z,99848.28
2023-03-25T03:47:30.581Z,99864.09
2023-03-25T03:50:06.559Z,99863.19
2023-03-25T03:52:39.052Z,99874.78
2023-03-25T03:55:14.086Z,99864.94
2023-03-25T03:57:49.441Z,99857.84
2023-03-25T04:00:22.385Z,99842.09
2023-03-25T04:02:55.229Z,99860.53
2023-03-25T04:05:31.059Z,99835.06
2023-03-25T04:08:03.878Z,99871.19
2023-03-25T04:10:40.403Z,99856.22
2023-03-25T04:13:13.988Z,99853.75
2023-03-25T04:15:43.766Z,99844.38
2023-03-25T04:18:12.210Z,99870.59
2023-03-25T04:20:44.621Z,99876.66
2023-03-25T04:23:16.091Z,99875.69
2023-03-25T04:25:47.720Z,99886.38
2023-03-25T04:28:18.136Z,99883.75
2023-03-25T04:30:48.692Z,99879.47
2023-03-25T04:33:17.765Z,99870.59
2023-03-25T04:35:46.941Z,99877.63
2023-03-25T04:38:18.161Z,99886.56
2023-03-25T04:40:47.734Z,99863.63
2023-03-25T04:43:18.545Z,99879.47
2023-03-25T04:45:54.548Z,99883.09
2023-03-25T04:48:26.073Z,99899.06
2023-03-25T04:50:55.898Z,99880.44
2023-03-25T04:53:24.394Z,99891.91
2023-03-25T04:55:52.957Z,99876.97
2023-03-25T04:58:23.079Z,99890.09
2023-03-25T05:00:54.002Z,99878.66
2023-03-25T05:03:24.341Z,99882.50
2023-03-25T05:05:53.503Z,99875.69
2023-03-25T05:08:22.620Z,99895.59
2023-03-25T05:10:51.408Z,99900.97
2023-03-25T05:13:19.893Z,99902.66
2023-03-25T05:15:49.933Z,99901.00
2023-03-25T05:18:18.884Z,99901.72
2023-03-25T05:20:51.096Z,99894.69
2023-03-25T05:23:19.733Z,99889.59
2023-03-25T05:25:50.556Z,99901.88
2023-03-25T05:28:20.054Z,99768.47
2023-03-25T05:30:49.807Z,99907.00
2023-03-25T05:33:19.304Z,99909.66
2023-03-25T05:35:48.540Z,99908.75
2023-03-25T05:38:18.841Z,99903.50
2023-03-25T05:40:48.016Z,99899.69
2023-03-25T05:43:16.875Z,99916.63
2023-03-25T05:45:46.965Z,99897.28
2023-03-25T05:48:16.669Z,99916.56
2023-03-25T05:50:45.169Z,99922.63
2023-03-25T05:53:16.581Z,99920.91
2023-03-25T05:55:44.919Z,99927.09
2023-03-25T05:58:13.147Z,99905.16
2023-03-25T06:00:42.320Z,99905.22
2023-03-25T06:03:11.382Z,99921.06
2023-03-25T06:05:42.241Z,99917.47
2023-03-25T06:08:11.164Z,99922.81
2023-03-25T06:10:40.266Z,99921.91
2023-03-25T06:13:08.588Z,99933.38
2023-03-25T06:15:40.686Z,99927.13
2023-03-25T06:18:10.559Z,99917.56
2023-03-25T06:20:39.030Z,99943.88
2023-03-25T06:23:10.005Z,99950.72
2023-03-25T06:25:38.336Z,99953.41
2023-03-25T06:28:06.899Z,99926.25
2023-03-25T06:30:35.329Z,99948.94
2023-03-25T06:33:06.162Z,99951.69
2023-03-25T06:35:34.563Z,99942.88
2023-03-25T06:38:03.542Z,99957.00
2023-03-25T06:40:43.876Z,99948.16
2023-03-25T06:43:12.639Z,99932.38
2023-03-25T06:46:00.735Z,99951.66
2023-03-25T06:48:48.862Z,99951.56
2023-03-25T06:51:17.224Z,99943.75
2023-03-25T06:53:45.631Z,99954.19
2023-03-25T06:56:17.501Z,99943.63
2023-03-25T06:58:46.868Z,99955.03
2023-03-25T07:01:15.549Z,99948.88
2023-03-25T07:03:44.305Z,99956.88
2023-03-25T07:06:17.863Z,99957.41
2023-03-25T07:08:46.428Z,99970.63
2023-03-25T07:11:18.554Z,99959.31
2023-03-25T07:13:46.910Z,99980.44
2023-03-25T07:16:16.814Z,99973.13
2023-03-25T07:18:45.437Z,99959.06
2023-03-25T07:21:13.813Z,99953.69
2023-03-25T07:23:43.286Z,99972.97
2023-03-25T07:26:13.304Z,99962.63
2023-03-25T07:28:43.225Z,99976.75
2023-03-25T07:31:13.619Z,99979.34
2023-03-25T07:33:42.249Z,99981.84
2023-03-25T07:36:13.650Z,99981.88
2023-03-25T07:38:42.366Z,99981.00
2023-03-25T07:41:15.567Z,99973.09
2023-03-25T07:43:59.650Z,99988.84
2023-03-25T07:46:31.817Z,99968.50
2023-03-25T07:49:00.201Z,99976.34
2023-03-25T07:51:28.583Z,99973.97
2023-03-25T07:53:56.894Z,99986.97
2023-03-25T07:56:34.605Z,99980.97
2023-03-25T07:59:05.306Z,99965.16
2023-03-25T08:01:33.703Z,99985.25
2023-03-25T08:04:02.227Z,99994.91
2023-03-25T08:06:31.173Z,100000.06
2023-03-25T08:08:59.575Z,100006.16
2023-03-25T08:11:27.889Z,100001.78
2023-03-25T08:13:56.341Z,100014.06
2023-03-25T08:16:26.413Z,99978.13
2023-03-25T08:18:54.798Z,99895.41
2023-03-25T08:21:25.259Z,100023.81
2023-03-25T08:23:58.425Z,100015.56
2023-03-25T08:26:26.984Z,99999.59
2023-03-25T08:28:57.865Z,100039.22
2023-03-25T08:31:31.021Z,100025.72
2023-03-25T08:33:59.909Z,100036.38
2023-03-25T08:36:28.738Z,100017.59
2023-03-25T08:38:57.162Z,100038.03
2023-03-25T08:41:26.704Z,100021.56
2023-03-25T08:43:55.352Z,100039.81
2023-03-25T08:46:23.977Z,100039.84
2023-03-25T08:48:54.135Z,100003.56
2023-03-25T08:51:22.477Z,100035.34
2023-03-25T08:53:50.904Z,100036.19
2023-03-25T08:56:19.243Z,100045.94
2023-03-25T08:58:47.665Z,99962.22
2023-03-25T09:01:16.025Z,100037.94
2023-03-25T09:03:44.379Z,100050.31
2023-03-25T09:06:14.082Z,100053.56
2023-03-25T09:08:42.388Z,100036.84
2023-03-25T09:11:12.044Z,100056.41
2023-03-25T09:13:40.452Z,100049.22
2023-03-25T09:16:10.830Z,100063.47
2023-03-25T09:18:39.567Z,100050.31
2023-03-25T09:21:08.441Z,100059.91
2023-03-25T09:23:38.152Z,100058.00
2023-03-25T09:26:07.466Z,100068.38
2023-03-25T09:28:35.801Z,100073.50
2023-03-25T09:31:04.162Z,100064.09
2023-03-25T09:33:32.591Z,100056.00
2023-03-25T09:36:01.208Z,100048.09
2023-03-25T09:38:29.532Z,100063.91
2023-03-25T09:40:59.463Z,100067.03
2023-03-25T09:43:42.361Z,100051.13
2023-03-25T09:46:10.832Z,100056.16
2023-03-25T09:48:41.623Z,100055.34
2023-03-25T09:51:14.284Z,100083.16
2023-03-25T09:53:48.011Z,100076.69
2023-03-25T09:56:22.716Z,100055.50
2023-03-25T09:58:53.909Z,100084.00
2023-03-25T10:01:39.289Z,100040.72
2023-03-25T10:04:45.371Z,100093.88
2023-03-25T10:07:33.265Z,100101.91
2023-03-25T10:10:12.439Z,100099.72
2023-03-25T10:12:50.798Z,100082.00
2023-03-25T10:15:32.701Z,100098.47
2023-03-25T10:18:20.489Z,100077.16
2023-03-25T10:21:01.613Z,100093.03
2023-03-25T10:23:38.033Z,100113.81
2023-03-25T10:26:14.724Z,100116.38
2023-03-25T10:28:53.130Z,100116.28
2023-03-25T10:31:26.342Z,100091.66
2023-03-25T10:33:56.594Z,100092.34
2023-03-25T10:36:34.254Z,100119.06
2023-03-25T10:39:05.036Z,100084.34
2023-03-25T10:41:37.361Z,100111.75
2023-03-25T10:44:12.534Z,100118.38
2023-03-25T10:46:48.055Z,100101.53
2023-03-25T10:49:21.226Z,100107.56
2023-03-25T10:51:53.894Z,100097.84
2023-03-25T10:54:26.531Z,100103.66
2023-03-25T10:56:57.961Z,100118.53
2023-03-25T10:59:34.852Z,100127.28
2023-03-25T11:02:16.271Z,100133.25
2023-03-25T11:04:47.504Z,100115.19
2023-03-25T11:07:22.195Z,100102.38
2023-03-25T11:09:51.766Z,100140.91
2023-03-25T11:12:30.171Z,100137.97
2023-03-25T11:15:08.737Z,100138.97
2023-03-25T11:17:37.367Z,100146.47
2023-03-25T11:20:11.120Z,100146.25
2023-03-25T11:22:47.107Z,100153.31
2023-03-25T11:25:21.331Z,100142.56
2023-03-25T11:27:54.267Z,100146.69
2023-03-25T11:30:26.708Z,100142.19
2023-03-25T11:33:02.408Z,100131.16
2023-03-25T11:35:34.443Z,100156.34
2023-03-25T11:38:15.108Z,100154.22
2023-03-25T11:40:52.550Z,100157.22
2023-03-25T11:43:23.614Z,100130.16
2023-03-25T11:45:54.616Z,100151.41
2023-03-25T11:48:25.833Z,100158.78
2023-03-25T11:51:00.301Z,100132.28
2023-03-25T11:53:33.808Z,100107.75
2023-03-25T11:56:06.006Z,100141.41
2023-03-25T11:58:37.170Z,100158.91
2023-03-25T12:01:18.340Z,100156.03
2023-03-25T12:03:47.182Z,100160.19
2023-03-25T12:06:20.657Z,100122.84
2023-03-25T12:08:53.372Z,100143.94
2023-03-25T12:11:29.447Z,100124.63
2023-03-25T12:14:20.618Z,100140.88
2023-03-25T12:17:00.135Z,100169.75
2023-03-25T12:19:40.367Z,100142.72
2023-03-25T12:22:27.464Z,100167.78
2023-03-25T12:25:13.283Z,100174.94
2023-03-25T12:27:58.498Z,100162.34
2023-03-25T12:30:45.487Z,100169.91
2023-03-25T12:33:35.233Z,100165.41
2023-03-25T12:36:28.165Z,100169.38
2023-03-25T12:39:14.103Z,100176.09
2023-03-25T12:41:50.987Z,100161.19
2023-03-25T12:44:43.799Z,100180.06
2023-03-25T12:47:23.328Z,100183.19
2023-03-25T12:50:11.152Z,100198.09
2023-03-25T12:52:49.336Z,100194.63
2023-03-25T12:55:52.146Z,100198.03
2023-03-25T12:59:10.916Z,100075.50
2023-03-25T13:01:49.848Z,100202.81
2023-03-25T13:04:41.869Z,100199.53
2023-03-25T13:07:16.989Z,100205.56
2023-03-25T13:09:56.033Z,100193.84
2023-03-25T13:12:32.727Z,100196.56
2023-03-25T13:15:09.475Z,100210.00
2023-03-25T13:17:42.662Z,100222.63
2023-03-25T13:20:12.486Z,100232.97
2023-03-25T13:22:46.788Z,100237.31
2023-03-25T13:25:27.056Z,100216.97
2023-03-25T13:27:59.756Z,100210.19
2023-03-25T13:30:34.437Z,100201.63
2023-03-25T13:33:13.695Z,100206.06
2023-03-25T13:35:48.957Z,100202.22
2023-03-25T13:38:27.257Z,100218.06
2023-03-25T13:41:09.897Z,100211.94
2023-03-25T13:43:49.567Z,100200.75
2023-03-25T13:46:22.582Z,100207.50
2023-03-25T13:48:56.803Z,100209.81
2023-03-25T13:51:25.497Z,100229.91
2023-03-25T13:53:59.906Z,100217.47
2023-03-25T13:57:00.513Z,100198.50
2023-03-25T14:00:08.068Z,100216.03
2023-03-25T14:03:48.753Z,100192.34
2023-03-25T14:06:59.248Z,100218.75
2023-03-25T14:09:58.022Z,100217.56
2023-03-25T14:12:30.359Z,100222.63
2023-03-25T14:15:06.592Z,100210.97
2023-03-25T14:17:37.337Z,100233.06
2023-03-25T14:20:08.415Z,100235.78
2023-03-25T14:22:43.896Z,100252.09
2023-03-25T14:25:22.373Z,100249.72
2023-03-25T14:27:52.646Z,100254.22
2023-03-25T14:30:24.334Z,100266.06
2023-03-25T14:32:56.235Z,100267.19
2023-03-25T14:35:49.509Z,100265.03
2023-03-25T14:38:51.581Z,100263.34
2023-03-25T14:41:59.728Z,100281.91
2023-03-25T14:44:32.887Z,100275.81
2023-03-25T14:47:26.602Z,100262.84
2023-03-25T14:50:01.526Z,100277.19
2023-03-25T14:52:33.918Z,100280.72
2023-03-25T14:55:10.507Z,100300.31
2023-03-25T14:57:44.317Z,100300.56
2023-03-25T15:00:26.873Z,100302.41
2023-03-25T15:03:04.023Z,100295.94
2023-03-25T15:05:35.263Z,100303.19
2023-03-25T15:08:16.745Z,100314.50
2023-03-25T15:10:50.064Z,100312.38
2023-03-25T15:13:27.831Z,100301.69
2023-03-25T15:16:01.462Z,100290.41
2023-03-25T15:19:03.200Z,100276.59
2023-03-25T15:22:23.981Z,100304.06
2023-03-25T15:24:57.690Z,100296.44
2023-03-25T15:27:43.003Z,100298.50
2023-03-25T15:30:33.876Z,100307.31
2023-03-25T15:33:14.306Z,100310.75
2023-03-25T15:35:57.839Z,100320.22
2023-03-25T15:38:52.856Z,100315.81
2023-03-25T15:41:51.557Z,100308.09
2023-03-25T15:44:56.803Z,100216.31
2023-03-25T15:48:07.344Z,100324.63
2023-03-25T15:50:49.866Z,100328.09
2023-03-25T15:53:52.007Z,100339.41
2023-03-25T15:56:25.102Z,100319.94
2023-03-25T15:58:59.484Z,100316.75
2023-03-25T16:01:32.060Z,100323.78
2023-03-25T16:04:06.157Z,100322.66
2023-03-25T16:06:41.919Z,100323.72
2023-03-25T16:09:19.241Z,100334.81
2023-03-25T16:11:48.033Z,100341.22
2023-03-25T16:14:19.365Z,100331.41
2023-03-25T16:16:51.274Z,100345.53
2023-03-25T16:19:23.257Z,100335.25
2023-03-25T16:21:53.822Z,100342.22
2023-03-25T16:24:29.556Z,100340.59
2023-03-25T16:26:57.897Z,100352.84
2023-03-25T16:29:27.735Z,100342.38
2023-03-25T16:31:59.109Z,100340.09
2023-03-25T16:34:29.529Z,100363.91
2023-03-25T16:36:57.875Z,100350.75
2023-03-25T16:39:28.030Z,100353.31
2023-03-25T16:42:06.282Z,100362.22
2023-03-25T16:44:35.484Z,100381.88
2023-03-25T16:47:04.412Z,100397.91
2023-03-25T16:49:37.291Z,100394.38
2023-03-25T16:52:11.917Z,100396.47
2023-03-25T16:54:49.013Z,100398.16
2023-03-25T16:57:22.048Z,100399.88
2023-03-25T16:59:53.268Z,100415.75
2023-03-25T17:02:28.682Z,100413.09
2023-03-25T17:05:16.210Z,100406.88
2023-03-25T17:07:44.725Z,100407.72
2023-03-25T17:10:23.099Z,100377.03
2023-03-25T17:12:58.027Z,100417.28
2023-03-25T17:15:28.253Z,100400.81
2023-03-25T17:18:01.279Z,100415.63
2023-03-25T17:20:36.020Z,100406.97
2023-03-25T17:23:08.295Z,100415.63
2023-03-25T17:25:52.493Z,100417.56
2023-03-25T17:28:38.031Z,100428.22
2023-03-25T17:31:28.195Z,100430.00
2023-03-25T17:34:03.161Z,100431.75
2023-03-25T17:36:34.197Z,100425.53
2023-03-25T17:39:05.310Z,100438.00
2023-03-25T17:41:40.335Z,100453.03
2023-03-25T17:44:09.123Z,100444.31
2023-03-25T17:46:37.417Z,100456.63
2023-03-25T17:49:16.588Z,100449.56
2023-03-25T17:51:46.368Z,100458.22
2023-03-25T17:54:15.532Z,100463.50
2023-03-25T17:56:47.792Z,100451.16
2023-03-25T17:59:19.234Z,100448.56
2023-03-25T18:01:50.096Z,100466.09
2023-03-25T18:04:20.742Z,100445.06
2023-03-25T18:06:49.367Z,100461.59
2023-03-25T18:09:20.407Z,100473.19
2023-03-25T18:11:53.659Z,100445.19
2023-03-25T18:14:22.612Z,100484.69
2023-03-25T18:16:51.435Z,100491.81
2023-03-25T18:19:22.602Z,100489.38
2023-03-25T18:21:51.370Z,100491.88
2023-03-25T18:24:20.050Z,100490.31
2023-03-25T18:26:49.900Z,100493.84
2023-03-25T18:29:21.191Z,100501.09
2023-03-25T18:31:49.875Z,100500.09
2023-03-25T18:34:20.511Z,100507.25
2023-03-25T18:36:49.575Z,100507.28
2023-03-25T18:39:20.589Z,100510.72
2023-03-25T18:41:50.501Z,100491.59
2023-03-25T18:44:19.331Z,100515.91
2023-03-25T18:46:47.732Z,100523.13
2023-03-25T18:49:19.151Z,100528.38
2023-03-25T18:51:48.487Z,100523.91
2023-03-25T18:54:17.593Z,100524.94
2023-03-25T18:56:46.616Z,100526.84
2023-03-25T18:59:18.954Z,100521.84
2023-03-25T19:01:47.468Z,100520.72
2023-03-25T19:04:16.330Z,100525.97
2023-03-25T19:06:44.774Z,100525.94
2023-03-25T19:09:18.786Z,100499.94
2023-03-25T19:11:48.125Z,100516.38
2023-03-25T19:14:17.813Z,100507.72
2023-03-25T19:16:57.157Z,100523.25
2023-03-25T19:19:31.824Z,100510.13
2023-03-25T19:22:00.197Z,100520.88
2023-03-25T19:24:28.527Z,100512.13
2023-03-25T19:26:56.873Z,100512.22
2023-03-25T19:29:26.558Z,100510.69
2023-03-25T19:31:54.910Z,100512.00
2023-03-25T19:34:23.295Z,100517.22
2023-03-25T19:36:53.936Z,100518.16
2023-03-25T19:39:22.717Z,100511.16
2023-03-25T19:41:52.807Z,100513.72
2023-03-25T19:44:21.568Z,100495.19
2023-03-25T19:46:51.313Z,100524.91
2023-03-25T19:49:32.516Z,100533.75
2023-03-25T19:52:05.404Z,100534.63
2023-03-25T19:54:33.686Z,100526.03
2023-03-25T19:57:02.097Z,100534.78
2023-03-25T19:59:30.599Z,100527.69
2023-03-25T20:02:01.275Z,100531.94
2023-03-25T20:04:29.757Z,100537.91
2023-03-25T20:06:58.145Z,100535.97
2023-03-25T20:09:30.178Z,100531.41
2023-03-25T20:11:58.772Z,100527.91
2023-03-25T20:14:27.156Z,100518.94
2023-03-25T20:16:55.578Z,100518.00
2023-03-25T20:19:26.902Z,100515.31
2023-03-25T20:21:55.284Z,100519.63
2023-03-25T20:24:23.572Z,100400.63
2023-03-25T20:26:51.993Z,100526.72
2023-03-25T20:29:22.205Z,100522.13
2023-03-25T20:31:50.742Z,100531.81
2023-03-25T20:34:19.151Z,100532.66
2023-03-25T20:36:49.898Z,100538.94
2023-03-25T20:39:18.101Z,100541.75
2023-03-25T20:41:46.504Z,100530.31
2023-03-25T20:44:14.976Z,100532.06
2023-03-25T20:46:46.171Z,100536.47
2023-03-25T20:49:15.627Z,100534.78
2023-03-25T20:51:44.808Z,100506.03
2023-03-25T20:54:16.148Z,100545.56
2023-03-25T20:56:45.928Z,100543.78
2023-03-25T20:59:16.931Z,100545.59
2023-03-25T21:01:45.610Z,100542.88
2023-03-25T21:04:14.847Z,100538.47
2023-03-25T21:06:43.236Z,100542.13
2023-03-25T21:09:11.574Z,100536.22
2023-03-25T21:11:41.330Z,100534.50
2023-03-25T21:14:10.830Z,100537.16
2023-03-25T21:16:40.363Z,100542.53
2023-03-25T21:19:08.999Z,100549.69
2023-03-25T21:21:38.606Z,100557.72
2023-03-25T21:24:08.107Z,100550.75
2023-03-25T21:26:36.570Z,100556.00
2023-03-25T21:29:06.383Z,100527.13
2023-03-25T21:31:34.883Z,100559.50
2023-03-25T21:34:03.371Z,100560.28
2023-03-25T21:36:32.412Z,100554.97
2023-03-25T21:39:04.082Z,100558.41
2023-03-25T21:41:32.489Z,100448.19
2023-03-25T21:44:00.771Z,100562.78
2023-03-25T21:46:30.445Z,100551.25
2023-03-25T21:49:00.866Z,100548.56
2023-03-25T21:51:32.451Z,100552.97
2023-03-25T21:54:01.341Z,100557.34
2023-03-25T21:56:32.449Z,100564.28
2023-03-25T21:59:01.795Z,100556.34
2023-03-25T22:01:32.582Z,100553.69
2023-03-25T22:04:03.004Z,100555.38
2023-03-25T22:06:35.067Z,100520.34
2023-03-25T22:09:06.186Z,100554.28
2023-03-25T22:11:37.483Z,100556.09
2023-03-25T22:14:06.711Z,100555.25
2023-03-25T22:16:36.920Z,100561.38
2023-03-25T22:19:05.727Z,100560.41
2023-03-25T22:21:37.421Z,100550.75
2023-03-25T22:24:08.391Z,100560.41
2023-03-25T22:26:39.831Z,100565.63
2023-03-25T22:29:11.383Z,100570.03
2023-03-25T22:31:42.860Z,100567.47
2023-03-25T22:34:15.770Z,100572.72
2023-03-25T22:36:50.167Z,100573.44
2023-03-25T22:39:19.532Z,100556.63
2023-03-25T22:41:48.046Z,100563.56
2023-03-25T22:44:18.085Z,100562.66
2023-03-25T22:46:49.455Z,100562.69
2023-03-25T22:49:20.090Z,100542.50
2023-03-25T22:51:48.550Z,100555.56
2023-03-25T22:54:16.948Z,100550.28
2023-03-25T22:56:45.678Z,100550.28
2023-03-25T22:59:15.515Z,100547.69
2023-03-25T23:01:44.632Z,100552.19
2023-03-25T23:04:15.037Z,100529.44
2023-03-25T23:06:47.123Z,100547.84
2023-03-25T23:09:39.539Z,100545.09
2023-03-25T23:12:09.995Z,100548.72
2023-03-25T23:14:39.817Z,100559.22
2023-03-25T23:17:08.604Z,100509.38
2023-03-25T23:19:38.363Z,100553.06
2023-03-25T23:22:07.185Z,100554.97
2023-03-25T23:24:36.987Z,100574.41
2023-03-25T23:27:07.108Z,100551.38
2023-03-25T23:29:37.397Z,100551.41
2023-03-25T23:32:08.024Z,100558.47
2023-03-25T23:34:40.128Z,100555.00
2023-03-25T23:37:10.198Z,100557.59
2023-03-25T23:39:40.338Z,100554.16
2023-03-25T23:42:09.395Z,100562.13
2023-03-25T23:44:37.681Z,100556.81
2023-03-25T23:47:06.370Z,100541.75
2023-03-25T23:49:38.123Z,100548.78
2023-03-25T23:52:11.363Z,100549.69
2023-03-25T23:54:40.975Z,100547.09
2023-03-25T23:57:09.397Z,100549.84
2023-03-25T23:59:37.805Z,100549.88
